sensor_id;sensor_type;location;lat;lon;timestamp;P1;durP1;ratioP1;P2;durP2;ratioP2
76284;SDS011;65096;50.998;7.098;2023-02-01T00:01:57;15.38;;;5.90;;
76284;SDS011;65096;50.998;7.098;2023-02-01T00:04:24;17.67;;;5.18;;
76284;SDS011;65096;50.998;7.098;2023-02-01T00:06:50;15.88;;;5.40;;
76284;SDS011;65096;50.998;7.098;2023-02-01T00:09:19;15.45;;;5.97;;
76284;SDS011;65096;50.998;7.098;2023-02-01T00:11:45;16.35;;;5.70;;
76284;SDS011;65096;50.998;7.098;2023-02-01T00:14:12;16.98;;;5.80;;
76284;SDS011;65096;50.998;7.098;2023-02-01T00:16:39;13.88;;;4.88;;
76284;SDS011;65096;50.998;7.098;2023-02-01T00:19:10;16.30;;;5.72;;
76284;SDS011;65096;50.998;7.098;2023-02-01T00:21:38;13.68;;;5.22;;
76284;SDS011;65096;50.998;7.098;2023-02-01T00:24:06;16.33;;;5.40;;
76284;SDS011;65096;50.998;7.098;2023-02-01T00:26:34;15.73;;;4.75;;
76284;SDS011;65096;50.998;7.098;2023-02-01T00:29:03;15.25;;;4.90;;
76284;SDS011;65096;50.998;7.098;2023-02-01T00:31:32;16.13;;;5.47;;
76284;SDS011;65096;50.998;7.098;2023-02-01T00:33:59;14.80;;;5.40;;
76284;SDS011;65096;50.998;7.098;2023-02-01T00:36:26;12.65;;;4.60;;
76284;SDS011;65096;50.998;7.098;2023-02-01T00:38:53;16.98;;;5.53;;
76284;SDS011;65096;50.998;7.098;2023-02-01T00:41:20;16.30;;;5.22;;
76284;SDS011;65096;50.998;7.098;2023-02-01T00:43:49;15.40;;;5.28;;
76284;SDS011;65096;50.998;7.098;2023-02-01T00:46:17;14.88;;;5.20;;
76284;SDS011;65096;50.998;7.098;2023-02-01T00:48:44;14.32;;;5.00;;
76284;SDS011;65096;50.998;7.098;2023-02-01T00:51:12;16.17;;;5.63;;
76284;SDS011;65096;50.998;7.098;2023-02-01T00:53:40;15.55;;;5.93;;
76284;SDS011;65096;50.998;7.098;2023-02-01T00:56:07;16.15;;;5.28;;
76284;SDS011;65096;50.998;7.098;2023-02-01T00:58:34;16.45;;;4.72;;
76284;SDS011;65096;50.998;7.098;2023-02-01T01:01:03;18.08;;;5.18;;
76284;SDS011;65096;50.998;7.098;2023-02-01T01:03:32;11.40;;;4.10;;
76284;SDS011;65096;50.998;7.098;2023-02-01T01:06:01;16.63;;;4.80;;
76284;SDS011;65096;50.998;7.098;2023-02-01T01:08:29;16.95;;;4.47;;
76284;SDS011;65096;50.998;7.098;2023-02-01T01:10:56;11.07;;;4.40;;
76284;SDS011;65096;50.998;7.098;2023-02-01T01:13:23;11.70;;;5.30;;
76284;SDS011;65096;50.998;7.098;2023-02-01T01:15:50;19.27;;;4.65;;
76284;SDS011;65096;50.998;7.098;2023-02-01T01:18:18;12.93;;;3.65;;
76284;SDS011;65096;50.998;7.098;2023-02-01T01:20:45;15.80;;;3.92;;
76284;SDS011;65096;50.998;7.098;2023-02-01T01:23:14;10.95;;;3.30;;
76284;SDS011;65096;50.998;7.098;2023-02-01T01:25:40;14.25;;;2.70;;
76284;SDS011;65096;50.998;7.098;2023-02-01T01:28:07;16.83;;;3.13;;
76284;SDS011;65096;50.998;7.098;2023-02-01T01:30:34;15.90;;;3.90;;
76284;SDS011;65096;50.998;7.098;2023-02-01T01:33:01;14.90;;;3.40;;
76284;SDS011;65096;50.998;7.098;2023-02-01T01:35:30;11.05;;;3.08;;
76284;SDS011;65096;50.998;7.098;2023-02-01T01:37:57;12.65;;;3.30;;
76284;SDS011;65096;50.998;7.098;2023-02-01T01:40:24;8.45;;;2.88;;
76284;SDS011;65096;50.998;7.098;2023-02-01T01:42:52;14.52;;;3.63;;
76284;SDS011;65096;50.998;7.098;2023-02-01T01:45:21;15.80;;;3.20;;
76284;SDS011;65096;50.998;7.098;2023-02-01T01:47:50;13.27;;;3.67;;
76284;SDS011;65096;50.998;7.098;2023-02-01T01:50:21;14.43;;;3.10;;
76284;SDS011;65096;50.998;7.098;2023-02-01T01:52:53;20.52;;;3.90;;
76284;SDS011;65096;50.998;7.098;2023-02-01T01:55:22;15.90;;;2.95;;
76284;SDS011;65096;50.998;7.098;2023-02-01T01:57:52;9.60;;;3.08;;
76284;SDS011;65096;50.998;7.098;2023-02-01T02:00:23;13.48;;;2.78;;
76284;SDS011;65096;50.998;7.098;2023-02-01T02:02:52;12.80;;;2.75;;
76284;SDS011;65096;50.998;7.098;2023-02-01T02:05:23;13.43;;;2.63;;
76284;SDS011;65096;50.998;7.098;2023-02-01T02:07:50;11.00;;;3.00;;
76284;SDS011;65096;50.998;7.098;2023-02-01T02:10:20;11.18;;;2.70;;
76284;SDS011;65096;50.998;7.098;2023-02-01T02:13:07;11.68;;;2.67;;
76284;SDS011;65096;50.998;7.098;2023-02-01T02:15:34;11.45;;;3.05;;
76284;SDS011;65096;50.998;7.098;2023-02-01T02:18:08;12.13;;;2.67;;
76284;SDS011;65096;50.998;7.098;2023-02-01T02:23:54;12.27;;;3.03;;
76284;SDS011;65096;50.998;7.098;2023-02-01T02:33:24;6.40;;;1.58;;
76284;SDS011;65096;50.998;7.098;2023-02-01T02:36:16;12.48;;;2.80;;
76284;SDS011;65096;50.998;7.098;2023-02-01T02:38:48;8.50;;;2.50;;
76284;SDS011;65096;50.998;7.098;2023-02-01T02:41:24;11.32;;;3.03;;
76284;SDS011;65096;50.998;7.098;2023-02-01T02:44:17;10.70;;;2.78;;
76284;SDS011;65096;50.998;7.098;2023-02-01T02:47:07;11.27;;;2.72;;
76284;SDS011;65096;50.998;7.098;2023-02-01T02:49:55;10.52;;;2.50;;
76284;SDS011;65096;50.998;7.098;2023-02-01T02:52:47;19.60;;;3.05;;
76284;SDS011;65096;50.998;7.098;2023-02-01T02:55:37;11.02;;;2.60;;
76284;SDS011;65096;50.998;7.098;2023-02-01T02:58:05;12.38;;;2.88;;
76284;SDS011;65096;50.998;7.098;2023-02-01T03:00:51;12.80;;;3.05;;
76284;SDS011;65096;50.998;7.098;2023-02-01T03:03:37;12.32;;;2.78;;
76284;SDS011;65096;50.998;7.098;2023-02-01T03:06:23;10.02;;;2.15;;
76284;SDS011;65096;50.998;7.098;2023-02-01T03:08:50;13.52;;;3.05;;
76284;SDS011;65096;50.998;7.098;2023-02-01T03:11:19;14.73;;;3.33;;
76284;SDS011;65096;50.998;7.098;2023-02-01T03:13:48;9.55;;;3.17;;
76284;SDS011;65096;50.998;7.098;2023-02-01T03:16:18;17.75;;;3.33;;
76284;SDS011;65096;50.998;7.098;2023-02-01T03:18:52;11.23;;;3.03;;
76284;SDS011;65096;50.998;7.098;2023-02-01T03:21:24;17.10;;;3.33;;
76284;SDS011;65096;50.998;7.098;2023-02-01T03:23:56;17.20;;;3.80;;
76284;SDS011;65096;50.998;7.098;2023-02-01T03:26:27;12.50;;;3.33;;
76284;SDS011;65096;50.998;7.098;2023-02-01T03:28:57;15.23;;;3.60;;
76284;SDS011;65096;50.998;7.098;2023-02-01T03:31:31;13.23;;;3.70;;
76284;SDS011;65096;50.998;7.098;2023-02-01T03:33:58;11.93;;;3.28;;
76284;SDS011;65096;50.998;7.098;2023-02-01T03:36:28;14.57;;;3.17;;
76284;SDS011;65096;50.998;7.098;2023-02-01T03:38:58;15.88;;;3.22;;
76284;SDS011;65096;50.998;7.098;2023-02-01T03:41:33;12.73;;;3.42;;
76284;SDS011;65096;50.998;7.098;2023-02-01T03:44:04;13.38;;;3.35;;
76284;SDS011;65096;50.998;7.098;2023-02-01T03:46:38;17.35;;;4.57;;
76284;SDS011;65096;50.998;7.098;2023-02-01T03:49:09;15.10;;;3.78;;
76284;SDS011;65096;50.998;7.098;2023-02-01T03:51:41;15.52;;;3.70;;
76284;SDS011;65096;50.998;7.098;2023-02-01T03:54:09;15.55;;;3.53;;
76284;SDS011;65096;50.998;7.098;2023-02-01T03:56:40;15.75;;;3.92;;
76284;SDS011;65096;50.998;7.098;2023-02-01T03:59:10;12.95;;;3.67;;
76284;SDS011;65096;50.998;7.098;2023-02-01T04:01:37;11.73;;;3.53;;
76284;SDS011;65096;50.998;7.098;2023-02-01T04:04:04;15.45;;;4.05;;
76284;SDS011;65096;50.998;7.098;2023-02-01T04:06:31;12.32;;;4.07;;
76284;SDS011;65096;50.998;7.098;2023-02-01T04:08:59;16.75;;;4.30;;
76284;SDS011;65096;50.998;7.098;2023-02-01T04:11:26;14.90;;;4.18;;
76284;SDS011;65096;50.998;7.098;2023-02-01T04:13:54;14.98;;;4.10;;
76284;SDS011;65096;50.998;7.098;2023-02-01T04:16:21;10.55;;;2.53;;
76284;SDS011;65096;50.998;7.098;2023-02-01T04:18:47;16.90;;;4.38;;
76284;SDS011;65096;50.998;7.098;2023-02-01T04:21:14;15.13;;;3.80;;
76284;SDS011;65096;50.998;7.098;2023-02-01T04:23:41;13.20;;;3.63;;
76284;SDS011;65096;50.998;7.098;2023-02-01T04:26:09;13.60;;;4.00;;
76284;SDS011;65096;50.998;7.098;2023-02-01T04:28:35;18.80;;;4.15;;
76284;SDS011;65096;50.998;7.098;2023-02-01T04:31:02;17.42;;;3.75;;
76284;SDS011;65096;50.998;7.098;2023-02-01T04:33:29;12.80;;;3.72;;
76284;SDS011;65096;50.998;7.098;2023-02-01T04:35:56;12.70;;;3.22;;
76284;SDS011;65096;50.998;7.098;2023-02-01T04:38:23;15.25;;;4.05;;
76284;SDS011;65096;50.998;7.098;2023-02-01T04:40:50;16.77;;;3.78;;
76284;SDS011;65096;50.998;7.098;2023-02-01T04:43:18;16.17;;;3.53;;
76284;SDS011;65096;50.998;7.098;2023-02-01T04:45:48;13.68;;;3.38;;
76284;SDS011;65096;50.998;7.098;2023-02-01T04:48:15;17.73;;;3.35;;
76284;SDS011;65096;50.998;7.098;2023-02-01T04:50:42;17.63;;;4.72;;
76284;SDS011;65096;50.998;7.098;2023-02-01T04:53:12;8.75;;;2.58;;
76284;SDS011;65096;50.998;7.098;2023-02-01T04:55:39;16.88;;;3.42;;
76284;SDS011;65096;50.998;7.098;2023-02-01T04:58:06;15.60;;;2.95;;
76284;SDS011;65096;50.998;7.098;2023-02-01T05:00:34;16.88;;;2.90;;
76284;SDS011;65096;50.998;7.098;2023-02-01T05:03:00;14.63;;;3.45;;
76284;SDS011;65096;50.998;7.098;2023-02-01T05:05:27;18.30;;;3.33;;
76284;SDS011;65096;50.998;7.098;2023-02-01T05:07:55;10.75;;;3.05;;
76284;SDS011;65096;50.998;7.098;2023-02-01T05:10:21;13.05;;;3.03;;
76284;SDS011;65096;50.998;7.098;2023-02-01T05:12:48;10.50;;;2.58;;
76284;SDS011;65096;50.998;7.098;2023-02-01T05:15:34;14.68;;;3.33;;
76284;SDS011;65096;50.998;7.098;2023-02-01T05:18:01;17.05;;;3.38;;
76284;SDS011;65096;50.998;7.098;2023-02-01T05:20:27;16.73;;;2.92;;
76284;SDS011;65096;50.998;7.098;2023-02-01T05:22:54;17.58;;;3.22;;
76284;SDS011;65096;50.998;7.098;2023-02-01T05:25:21;15.90;;;2.60;;
76284;SDS011;65096;50.998;7.098;2023-02-01T05:27:48;12.73;;;3.17;;
76284;SDS011;65096;50.998;7.098;2023-02-01T05:30:15;15.48;;;3.70;;
76284;SDS011;65096;50.998;7.098;2023-02-01T05:32:43;14.02;;;3.28;;
76284;SDS011;65096;50.998;7.098;2023-02-01T05:35:10;10.43;;;2.25;;
76284;SDS011;65096;50.998;7.098;2023-02-01T05:37:36;13.07;;;2.95;;
76284;SDS011;65096;50.998;7.098;2023-02-01T05:40:03;12.32;;;2.80;;
76284;SDS011;65096;50.998;7.098;2023-02-01T05:42:30;12.07;;;2.55;;
76284;SDS011;65096;50.998;7.098;2023-02-01T05:44:57;13.52;;;3.03;;
76284;SDS011;65096;50.998;7.098;2023-02-01T05:47:24;9.23;;;2.47;;
76284;SDS011;65096;50.998;7.098;2023-02-01T05:49:52;8.85;;;2.33;;
76284;SDS011;65096;50.998;7.098;2023-02-01T05:52:19;13.77;;;2.85;;
76284;SDS011;65096;50.998;7.098;2023-02-01T05:54:46;14.48;;;3.58;;
76284;SDS011;65096;50.998;7.098;2023-02-01T05:57:13;10.43;;;3.13;;
76284;SDS011;65096;50.998;7.098;2023-02-01T05:59:40;11.25;;;2.53;;
76284;SDS011;65096;50.998;7.098;2023-02-01T06:02:09;13.13;;;2.60;;
76284;SDS011;65096;50.998;7.098;2023-02-01T06:04:37;14.27;;;2.70;;
76284;SDS011;65096;50.998;7.098;2023-02-01T06:07:05;11.48;;;2.67;;
76284;SDS011;65096;50.998;7.098;2023-02-01T06:09:34;13.32;;;3.38;;
76284;SDS011;65096;50.998;7.098;2023-02-01T06:12:00;15.00;;;3.10;;
76284;SDS011;65096;50.998;7.098;2023-02-01T06:14:27;9.55;;;2.05;;
76284;SDS011;65096;50.998;7.098;2023-02-01T06:16:54;12.63;;;3.00;;
76284;SDS011;65096;50.998;7.098;2023-02-01T06:19:21;14.45;;;2.75;;
76284;SDS011;65096;50.998;7.098;2023-02-01T06:21:48;16.23;;;2.80;;
76284;SDS011;65096;50.998;7.098;2023-02-01T06:24:16;12.65;;;2.38;;
76284;SDS011;65096;50.998;7.098;2023-02-01T06:26:43;13.48;;;2.53;;
76284;SDS011;65096;50.998;7.098;2023-02-01T06:29:10;15.35;;;2.95;;
76284;SDS011;65096;50.998;7.098;2023-02-01T06:31:37;13.15;;;2.65;;
76284;SDS011;65096;50.998;7.098;2023-02-01T06:34:04;11.25;;;2.72;;
76284;SDS011;65096;50.998;7.098;2023-02-01T06:36:31;12.70;;;2.80;;
76284;SDS011;65096;50.998;7.098;2023-02-01T06:38:58;15.73;;;2.50;;
76284;SDS011;65096;50.998;7.098;2023-02-01T06:41:26;14.55;;;2.80;;
76284;SDS011;65096;50.998;7.098;2023-02-01T06:43:53;13.43;;;3.22;;
76284;SDS011;65096;50.998;7.098;2023-02-01T06:46:20;11.82;;;2.35;;
76284;SDS011;65096;50.998;7.098;2023-02-01T06:48:46;13.75;;;2.95;;
76284;SDS011;65096;50.998;7.098;2023-02-01T06:51:21;17.45;;;2.80;;
76284;SDS011;65096;50.998;7.098;2023-02-01T06:53:48;15.50;;;3.10;;
76284;SDS011;65096;50.998;7.098;2023-02-01T06:56:15;21.60;;;3.33;;
76284;SDS011;65096;50.998;7.098;2023-02-01T06:58:44;13.45;;;2.58;;
76284;SDS011;65096;50.998;7.098;2023-02-01T07:01:11;11.77;;;2.47;;
76284;SDS011;65096;50.998;7.098;2023-02-01T07:03:38;16.15;;;3.15;;
76284;SDS011;65096;50.998;7.098;2023-02-01T07:06:06;13.63;;;3.40;;
76284;SDS011;65096;50.998;7.098;2023-02-01T07:08:33;12.48;;;2.92;;
76284;SDS011;65096;50.998;7.098;2023-02-01T07:11:01;14.15;;;2.97;;
76284;SDS011;65096;50.998;7.098;2023-02-01T07:13:29;18.27;;;2.55;;
76284;SDS011;65096;50.998;7.098;2023-02-01T07:15:59;13.20;;;2.90;;
76284;SDS011;65096;50.998;7.098;2023-02-01T07:18:26;14.10;;;2.67;;
76284;SDS011;65096;50.998;7.098;2023-02-01T07:20:54;8.90;;;3.10;;
76284;SDS011;65096;50.998;7.098;2023-02-01T07:23:20;13.45;;;2.70;;
76284;SDS011;65096;50.998;7.098;2023-02-01T07:25:47;14.77;;;2.83;;
76284;SDS011;65096;50.998;7.098;2023-02-01T07:28:14;14.10;;;2.60;;
76284;SDS011;65096;50.998;7.098;2023-02-01T07:30:41;9.70;;;2.17;;
76284;SDS011;65096;50.998;7.098;2023-02-01T07:33:09;9.32;;;2.33;;
76284;SDS011;65096;50.998;7.098;2023-02-01T07:35:36;15.05;;;2.78;;
76284;SDS011;65096;50.998;7.098;2023-02-01T07:38:03;11.43;;;2.72;;
76284;SDS011;65096;50.998;7.098;2023-02-01T07:40:29;11.27;;;2.75;;
76284;SDS011;65096;50.998;7.098;2023-02-01T07:42:56;16.58;;;3.08;;
76284;SDS011;65096;50.998;7.098;2023-02-01T07:45:23;12.57;;;2.35;;
76284;SDS011;65096;50.998;7.098;2023-02-01T07:47:51;7.75;;;1.75;;
76284;SDS011;65096;50.998;7.098;2023-02-01T07:50:20;10.80;;;2.45;;
76284;SDS011;65096;50.998;7.098;2023-02-01T07:52:46;13.60;;;2.42;;
76284;SDS011;65096;50.998;7.098;2023-02-01T07:55:13;10.57;;;2.42;;
76284;SDS011;65096;50.998;7.098;2023-02-01T07:57:40;14.48;;;3.00;;
76284;SDS011;65096;50.998;7.098;2023-02-01T08:00:07;12.90;;;2.40;;
76284;SDS011;65096;50.998;7.098;2023-02-01T08:03:07;15.50;;;3.28;;
76284;SDS011;65096;50.998;7.098;2023-02-01T08:05:35;10.23;;;2.03;;
76284;SDS011;65096;50.998;7.098;2023-02-01T08:08:02;16.42;;;2.83;;
76284;SDS011;65096;50.998;7.098;2023-02-01T08:10:29;15.15;;;2.75;;
76284;SDS011;65096;50.998;7.098;2023-02-01T08:12:57;20.52;;;3.25;;
76284;SDS011;65096;50.998;7.098;2023-02-01T08:15:26;12.13;;;2.67;;
76284;SDS011;65096;50.998;7.098;2023-02-01T08:17:53;17.63;;;3.40;;
76284;SDS011;65096;50.998;7.098;2023-02-01T08:20:20;19.65;;;3.55;;
76284;SDS011;65096;50.998;7.098;2023-02-01T08:22:49;18.60;;;3.17;;
76284;SDS011;65096;50.998;7.098;2023-02-01T08:25:16;11.13;;;2.35;;
76284;SDS011;65096;50.998;7.098;2023-02-01T08:27:43;11.93;;;2.40;;
76284;SDS011;65096;50.998;7.098;2023-02-01T08:30:11;17.85;;;2.90;;
76284;SDS011;65096;50.998;7.098;2023-02-01T08:32:38;9.32;;;1.55;;
76284;SDS011;65096;50.998;7.098;2023-02-01T08:35:05;11.68;;;2.60;;
76284;SDS011;65096;50.998;7.098;2023-02-01T08:37:32;12.52;;;3.08;;
76284;SDS011;65096;50.998;7.098;2023-02-01T08:40:00;11.38;;;2.40;;
76284;SDS011;65096;50.998;7.098;2023-02-01T08:42:27;18.38;;;2.83;;
76284;SDS011;65096;50.998;7.098;2023-02-01T08:45:11;8.55;;;1.83;;
76284;SDS011;65096;50.998;7.098;2023-02-01T08:47:38;16.20;;;3.13;;
76284;SDS011;65096;50.998;7.098;2023-02-01T08:50:05;11.52;;;2.40;;
76284;SDS011;65096;50.998;7.098;2023-02-01T08:52:33;16.92;;;3.40;;
76284;SDS011;65096;50.998;7.098;2023-02-01T08:55:01;12.30;;;2.33;;
76284;SDS011;65096;50.998;7.098;2023-02-01T08:57:28;19.55;;;4.18;;
76284;SDS011;65096;50.998;7.098;2023-02-01T08:59:55;13.77;;;3.08;;
76284;SDS011;65096;50.998;7.098;2023-02-01T09:02:22;17.40;;;2.97;;
76284;SDS011;65096;50.998;7.098;2023-02-01T09:04:49;15.05;;;2.88;;
76284;SDS011;65096;50.998;7.098;2023-02-01T09:07:16;13.07;;;2.47;;
76284;SDS011;65096;50.998;7.098;2023-02-01T09:09:43;12.00;;;2.85;;
76284;SDS011;65096;50.998;7.098;2023-02-01T09:12:11;20.02;;;3.30;;
76284;SDS011;65096;50.998;7.098;2023-02-01T09:14:39;11.45;;;2.55;;
76284;SDS011;65096;50.998;7.098;2023-02-01T09:17:06;13.77;;;2.83;;
76284;SDS011;65096;50.998;7.098;2023-02-01T09:19:32;13.05;;;3.25;;
76284;SDS011;65096;50.998;7.098;2023-02-01T09:21:59;10.98;;;2.47;;
76284;SDS011;65096;50.998;7.098;2023-02-01T09:24:26;13.68;;;2.60;;
76284;SDS011;65096;50.998;7.098;2023-02-01T09:26:53;8.93;;;2.63;;
76284;SDS011;65096;50.998;7.098;2023-02-01T09:29:21;6.57;;;1.88;;
76284;SDS011;65096;50.998;7.098;2023-02-01T09:31:47;11.55;;;3.00;;
76284;SDS011;65096;50.998;7.098;2023-02-01T09:34:14;15.20;;;2.88;;
76284;SDS011;65096;50.998;7.098;2023-02-01T09:36:41;15.85;;;3.53;;
76284;SDS011;65096;50.998;7.098;2023-02-01T09:39:07;14.63;;;2.75;;
76284;SDS011;65096;50.998;7.098;2023-02-01T09:44:30;13.05;;;2.80;;
76284;SDS011;65096;50.998;7.098;2023-02-01T09:47:11;14.52;;;3.28;;
76284;SDS011;65096;50.998;7.098;2023-02-01T09:49:40;15.23;;;3.15;;
76284;SDS011;65096;50.998;7.098;2023-02-01T09:52:15;10.30;;;2.88;;
76284;SDS011;65096;50.998;7.098;2023-02-01T09:54:46;18.27;;;4.50;;
76284;SDS011;65096;50.998;7.098;2023-02-01T09:57:23;11.98;;;2.80;;
76284;SDS011;65096;50.998;7.098;2023-02-01T09:59:54;15.07;;;3.47;;
76284;SDS011;65096;50.998;7.098;2023-02-01T10:02:28;12.60;;;2.60;;
76284;SDS011;65096;50.998;7.098;2023-02-01T10:04:56;14.40;;;3.20;;
76284;SDS011;65096;50.998;7.098;2023-02-01T10:07:27;15.40;;;2.70;;
76284;SDS011;65096;50.998;7.098;2023-02-01T10:10:04;18.70;;;3.38;;
76284;SDS011;65096;50.998;7.098;2023-02-01T10:12:49;19.77;;;3.05;;
76284;SDS011;65096;50.998;7.098;2023-02-01T10:15:44;14.80;;;3.03;;
76284;SDS011;65096;50.998;7.098;2023-02-01T10:21:19;13.82;;;3.05;;
76284;SDS011;65096;50.998;7.098;2023-02-01T10:24:02;12.75;;;3.13;;
76284;SDS011;65096;50.998;7.098;2023-02-01T10:26:55;7.55;;;1.65;;
76284;SDS011;65096;50.998;7.098;2023-02-01T10:29:28;11.52;;;2.95;;
76284;SDS011;65096;50.998;7.098;2023-02-01T10:32:02;15.07;;;3.00;;
76284;SDS011;65096;50.998;7.098;2023-02-01T10:34:38;9.63;;;2.38;;
76284;SDS011;65096;50.998;7.098;2023-02-01T10:37:09;12.45;;;3.00;;
76284;SDS011;65096;50.998;7.098;2023-02-01T10:39:45;12.65;;;2.65;;
76284;SDS011;65096;50.998;7.098;2023-02-01T10:42:13;15.77;;;3.47;;
76284;SDS011;65096;50.998;7.098;2023-02-01T10:44:42;17.60;;;3.40;;
76284;SDS011;65096;50.998;7.098;2023-02-01T10:47:14;9.77;;;2.03;;
76284;SDS011;65096;50.998;7.098;2023-02-01T10:49:43;13.95;;;3.05;;
76284;SDS011;65096;50.998;7.098;2023-02-01T10:52:19;15.60;;;3.15;;
76284;SDS011;65096;50.998;7.098;2023-02-01T10:54:51;10.13;;;2.80;;
76284;SDS011;65096;50.998;7.098;2023-02-01T10:57:20;17.90;;;2.83;;
76284;SDS011;65096;50.998;7.098;2023-02-01T10:59:50;15.63;;;2.95;;
76284;SDS011;65096;50.998;7.098;2023-02-01T11:02:24;12.23;;;2.67;;
76284;SDS011;65096;50.998;7.098;2023-02-01T11:04:58;9.05;;;2.45;;
76284;SDS011;65096;50.998;7.098;2023-02-01T11:07:27;8.93;;;2.63;;
76284;SDS011;65096;50.998;7.098;2023-02-01T11:09:54;7.68;;;1.88;;
76284;SDS011;65096;50.998;7.098;2023-02-01T11:12:29;17.67;;;3.47;;
76284;SDS011;65096;50.998;7.098;2023-02-01T11:14:58;9.75;;;2.67;;
76284;SDS011;65096;50.998;7.098;2023-02-01T11:17:32;9.55;;;2.60;;
76284;SDS011;65096;50.998;7.098;2023-02-01T11:20:02;9.60;;;1.67;;
76284;SDS011;65096;50.998;7.098;2023-02-01T11:22:31;13.23;;;3.13;;
76284;SDS011;65096;50.998;7.098;2023-02-01T11:24:58;13.88;;;2.80;;
76284;SDS011;65096;50.998;7.098;2023-02-01T11:27:27;11.27;;;3.30;;
76284;SDS011;65096;50.998;7.098;2023-02-01T11:29:56;9.55;;;2.88;;
76284;SDS011;65096;50.998;7.098;2023-02-01T11:32:27;5.40;;;1.77;;
76284;SDS011;65096;50.998;7.098;2023-02-01T11:34:57;9.07;;;2.88;;
76284;SDS011;65096;50.998;7.098;2023-02-01T11:37:28;16.48;;;2.92;;
76284;SDS011;65096;50.998;7.098;2023-02-01T11:39:58;9.23;;;2.50;;
76284;SDS011;65096;50.998;7.098;2023-02-01T11:42:27;11.77;;;3.45;;
76284;SDS011;65096;50.998;7.098;2023-02-01T11:45:16;11.20;;;3.13;;
76284;SDS011;65096;50.998;7.098;2023-02-01T11:47:45;14.43;;;2.83;;
76284;SDS011;65096;50.998;7.098;2023-02-01T11:50:14;18.13;;;3.63;;
76284;SDS011;65096;50.998;7.098;2023-02-01T11:52:48;12.20;;;3.20;;
76284;SDS011;65096;50.998;7.098;2023-02-01T11:58:25;8.43;;;2.33;;
76284;SDS011;65096;50.998;7.098;2023-02-01T12:01:11;12.50;;;2.60;;
76284;SDS011;65096;50.998;7.098;2023-02-01T12:03:59;12.82;;;3.38;;
76284;SDS011;65096;50.998;7.098;2023-02-01T12:06:48;10.93;;;3.05;;
76284;SDS011;65096;50.998;7.098;2023-02-01T12:12:14;7.00;;;1.95;;
76284;SDS011;65096;50.998;7.098;2023-02-01T12:14:53;10.07;;;2.55;;
76284;SDS011;65096;50.998;7.098;2023-02-01T12:20:36;10.20;;;2.45;;
76284;SDS011;65096;50.998;7.098;2023-02-01T12:23:31;7.07;;;1.83;;
76284;SDS011;65096;50.998;7.098;2023-02-01T12:26:18;12.10;;;3.10;;
76284;SDS011;65096;50.998;7.098;2023-02-01T12:29:03;10.23;;;2.55;;
76284;SDS011;65096;50.998;7.098;2023-02-01T12:31:45;11.55;;;2.45;;
76284;SDS011;65096;50.998;7.098;2023-02-01T12:34:46;10.23;;;3.15;;
76284;SDS011;65096;50.998;7.098;2023-02-01T12:37:30;8.18;;;2.10;;
76284;SDS011;65096;50.998;7.098;2023-02-01T12:40:14;9.68;;;2.42;;
76284;SDS011;65096;50.998;7.098;2023-02-01T12:42:48;9.32;;;2.38;;
76284;SDS011;65096;50.998;7.098;2023-02-01T12:45:25;14.77;;;4.00;;
76284;SDS011;65096;50.998;7.098;2023-02-01T12:47:57;8.15;;;2.95;;
76284;SDS011;65096;50.998;7.098;2023-02-01T12:50:33;8.80;;;2.03;;
76284;SDS011;65096;50.998;7.098;2023-02-01T12:53:07;11.68;;;2.20;;
76284;SDS011;65096;50.998;7.098;2023-02-01T12:55:41;13.52;;;2.67;;
76284;SDS011;65096;50.998;7.098;2023-02-01T12:58:15;16.58;;;2.75;;
76284;SDS011;65096;50.998;7.098;2023-02-01T13:00:48;12.68;;;2.90;;
76284;SDS011;65096;50.998;7.098;2023-02-01T13:03:26;13.38;;;2.15;;
76284;SDS011;65096;50.998;7.098;2023-02-01T13:06:01;11.23;;;2.28;;
76284;SDS011;65096;50.998;7.098;2023-02-01T13:08:35;6.60;;;1.70;;
76284;SDS011;65096;50.998;7.098;2023-02-01T13:11:10;9.68;;;2.47;;
76284;SDS011;65096;50.998;7.098;2023-02-01T13:13:45;16.92;;;3.17;;
76284;SDS011;65096;50.998;7.098;2023-02-01T13:16:17;6.70;;;1.40;;
76284;SDS011;65096;50.998;7.098;2023-02-01T13:18:53;10.38;;;2.60;;
76284;SDS011;65096;50.998;7.098;2023-02-01T13:21:29;13.07;;;2.42;;
76284;SDS011;65096;50.998;7.098;2023-02-01T13:23:59;12.35;;;2.15;;
76284;SDS011;65096;50.998;7.098;2023-02-01T13:26:27;10.88;;;2.53;;
76284;SDS011;65096;50.998;7.098;2023-02-01T13:28:55;15.18;;;2.42;;
76284;SDS011;65096;50.998;7.098;2023-02-01T13:31:40;10.77;;;2.00;;
76284;SDS011;65096;50.998;7.098;2023-02-01T13:37:28;8.25;;;2.42;;
76284;SDS011;65096;50.998;7.098;2023-02-01T13:40:09;7.15;;;2.08;;
76284;SDS011;65096;50.998;7.098;2023-02-01T13:42:47;9.70;;;2.30;;
76284;SDS011;65096;50.998;7.098;2023-02-01T13:47:46;9.65;;;2.03;;
76284;SDS011;65096;50.998;7.098;2023-02-01T13:50:20;10.93;;;2.05;;
76284;SDS011;65096;50.998;7.098;2023-02-01T13:52:51;9.18;;;2.20;;
76284;SDS011;65096;50.998;7.098;2023-02-01T13:55:27;15.95;;;2.80;;
76284;SDS011;65096;50.998;7.098;2023-02-01T13:58:02;14.00;;;2.50;;
76284;SDS011;65096;50.998;7.098;2023-02-01T14:00:32;10.43;;;2.05;;
76284;SDS011;65096;50.998;7.098;2023-02-01T14:03:10;11.52;;;2.30;;
76284;SDS011;65096;50.998;7.098;2023-02-01T14:08:44;14.98;;;3.10;;
76284;SDS011;65096;50.998;7.098;2023-02-01T14:28:47;9.77;;;1.58;;
76284;SDS011;65096;50.998;7.098;2023-02-01T14:34:17;9.07;;;1.70;;
76284;SDS011;65096;50.998;7.098;2023-02-01T14:36:48;13.85;;;2.30;;
76284;SDS011;65096;50.998;7.098;2023-02-01T14:39:22;8.45;;;1.77;;
76284;SDS011;65096;50.998;7.098;2023-02-01T14:41:54;13.90;;;2.33;;
76284;SDS011;65096;50.998;7.098;2023-02-01T14:44:27;11.90;;;2.00;;
76284;SDS011;65096;50.998;7.098;2023-02-01T14:47:05;10.90;;;2.00;;
76284;SDS011;65096;50.998;7.098;2023-02-01T14:49:54;13.18;;;2.50;;
76284;SDS011;65096;50.998;7.098;2023-02-01T14:52:28;11.23;;;2.10;;
76284;SDS011;65096;50.998;7.098;2023-02-01T14:54:59;12.05;;;2.15;;
76284;SDS011;65096;50.998;7.098;2023-02-01T14:57:31;9.65;;;2.20;;
76284;SDS011;65096;50.998;7.098;2023-02-01T15:00:08;12.77;;;2.70;;
76284;SDS011;65096;50.998;7.098;2023-02-01T15:02:44;13.55;;;2.05;;
76284;SDS011;65096;50.998;7.098;2023-02-01T15:05:22;2.65;;;1.20;;
76284;SDS011;65096;50.998;7.098;2023-02-01T15:07:51;13.65;;;2.00;;
76284;SDS011;65096;50.998;7.098;2023-02-01T15:10:19;12.20;;;2.42;;
76284;SDS011;65096;50.998;7.098;2023-02-01T15:12:48;10.85;;;1.90;;
76284;SDS011;65096;50.998;7.098;2023-02-01T15:15:16;11.38;;;2.55;;
76284;SDS011;65096;50.998;7.098;2023-02-01T15:17:49;15.52;;;2.35;;
76284;SDS011;65096;50.998;7.098;2023-02-01T15:22:53;13.05;;;2.83;;
76284;SDS011;65096;50.998;7.098;2023-02-01T15:25:23;11.32;;;2.80;;
76284;SDS011;65096;50.998;7.098;2023-02-01T15:27:52;13.32;;;2.17;;
76284;SDS011;65096;50.998;7.098;2023-02-01T15:30:19;9.40;;;2.22;;
76284;SDS011;65096;50.998;7.098;2023-02-01T15:32:48;12.00;;;2.83;;
76284;SDS011;65096;50.998;7.098;2023-02-01T15:35:32;10.82;;;2.63;;
76284;SDS011;65096;50.998;7.098;2023-02-01T15:38:30;12.70;;;2.80;;
76284;SDS011;65096;50.998;7.098;2023-02-01T15:41:03;10.90;;;2.50;;
76284;SDS011;65096;50.998;7.098;2023-02-01T15:43:33;10.07;;;2.20;;
76284;SDS011;65096;50.998;7.098;2023-02-01T15:46:03;10.60;;;1.83;;
76284;SDS011;65096;50.998;7.098;2023-02-01T15:48:37;13.57;;;2.55;;
76284;SDS011;65096;50.998;7.098;2023-02-01T15:51:06;10.32;;;2.20;;
76284;SDS011;65096;50.998;7.098;2023-02-01T15:53:42;9.55;;;2.10;;
76284;SDS011;65096;50.998;7.098;2023-02-01T15:56:11;11.15;;;2.25;;